Time;durP1;ratioP1;P1;durP2;ratioP2;P2;SDS_P1;SDS_P2;PMS_P1;PMS_P2;Temp;Humidity;BMP_temperature;BMP_pressure;BME280_temperature;BME280_humidity;BME280_pressure;Samples;Min_cycle;Max_cycle;Signal;HPM_P1;HPM_P2
2022/05/11 00:00:37;;;;;;;0.70;0.70;;;17.20;99.90;;;;;;5003270;28;20218;-81
2022/05/11 00:03:04;;;;;;;0.60;0.60;;;17.20;99.90;;;;;;5005884;28;20199;-82
2022/05/11 00:05:30;;;;;;;0.70;0.57;;;17.20;99.90;;;;;;5005233;28;20182;-82
2022/05/11 00:07:56;;;;;;;0.30;0.30;;;17.20;99.90;;;;;;5011172;28;20955;-82
2022/05/11 00:10:21;;;;;;;0.70;0.70;;;17.30;99.90;;;;;;5011573;28;20194;-82
2022/05/11 00:12:47;;;;;;;1.20;1.10;;;17.20;99.90;;;;;;5010224;28;20291;-81
2022/05/11 00:15:19;;;;;;;0.50;0.50;;;17.00;99.90;;;;;;5012273;28;20202;-82
2022/05/11 00:17:44;;;;;;;0.70;0.70;;;16.90;99.90;;;;;;5009502;28;20184;-82
2022/05/11 00:20:13;;;;;;;0.70;0.70;;;16.90;99.90;;;;;;5005023;28;20194;-82
2022/05/11 00:22:39;;;;;;;1.43;0.60;;;16.80;99.90;;;;;;5004947;28;20180;-82
2022/05/11 00:25:08;;;;;;;0.57;0.57;;;16.80;99.90;;;;;;5020753;28;20980;-82
2022/05/11 00:27:33;;;;;;;0.40;0.40;;;16.90;99.90;;;;;;5007372;28;20198;-82
2022/05/11 00:29:59;;;;;;;0.47;0.47;;;17.00;99.90;;;;;;5003258;28;20180;-82
2022/05/11 00:32:25;;;;;;;0.43;0.40;;;16.90;99.90;;;;;;5020081;28;20183;-81
2022/05/11 00:34:51;;;;;;;0.47;0.47;;;16.90;99.90;;;;;;5008935;28;20211;-82
2022/05/11 00:37:17;;;;;;;0.40;0.40;;;16.90;99.90;;;;;;5005242;28;20191;-81
2022/05/11 00:39:43;;;;;;;0.70;0.67;;;16.90;99.90;;;;;;5010443;28;20201;-82
2022/05/11 00:42:08;;;;;;;0.40;0.37;;;16.90;99.90;;;;;;5010000;28;20265;-81
2022/05/11 00:44:34;;;;;;;0.83;0.80;;;17.00;99.90;;;;;;5003245;28;20208;-81
2022/05/11 00:47:07;;;;;;;0.50;0.50;;;16.90;99.90;;;;;;5003355;28;20215;-81
2022/05/11 00:49:55;;;;;;;2.10;0.83;;;17.00;99.90;;;;;;5003311;28;20191;-82
2022/05/11 00:52:30;;;;;;;0.73;0.53;;;17.10;99.90;;;;;;5004210;28;21334;-82
2022/05/11 00:55:00;;;;;;;0.83;0.50;;;17.20;99.90;;;;;;5003878;28;20285;-82
2022/05/11 00:57:46;;;;;;;1.13;0.80;;;17.00;99.90;;;;;;5009430;28;20195;-82
2022/05/11 01:00:13;;;;;;;0.73;0.73;;;16.80;99.90;;;;;;5020931;28;20179;-82
2022/05/11 01:02:41;;;;;;;0.90;0.80;;;16.50;99.90;;;;;;5018001;28;20561;-81
2022/05/11 01:05:08;;;;;;;0.57;0.50;;;16.40;99.90;;;;;;5004973;28;20294;-82
2022/05/11 01:07:34;;;;;;;0.63;0.50;;;16.20;99.90;;;;;;5004323;28;20203;-82
2022/05/11 01:10:00;;;;;;;1.70;0.90;;;16.10;99.90;;;;;;5009597;28;20228;-82
2022/05/11 01:12:35;;;;;;;0.77;0.77;;;16.10;99.90;;;;;;5008151;28;20194;-82
2022/05/11 01:15:04;;;;;;;0.80;0.60;;;16.00;99.90;;;;;;5009942;28;20218;-82
2022/05/11 01:17:35;;;;;;;0.97;0.87;;;15.90;99.90;;;;;;5004303;28;20179;-82
2022/05/11 01:20:03;;;;;;;0.93;0.40;;;15.90;99.90;;;;;;5019187;28;20184;-82
2022/05/11 01:23:04;;;;;;;0.53;0.53;;;16.00;99.90;;;;;;5016937;28;20187;-82
2022/05/11 01:25:30;;;;;;;0.67;0.50;;;16.00;99.90;;;;;;5002768;28;20176;-82
2022/05/11 01:28:14;;;;;;;0.63;0.63;;;16.00;99.90;;;;;;5009652;28;20195;-82
2022/05/11 01:30:43;;;;;;;0.50;0.50;;;16.00;99.90;;;;;;5003496;28;20197;-82
2022/05/11 01:33:14;;;;;;;0.83;0.57;;;16.00;99.90;;;;;;5002662;28;20222;-82
2022/05/11 01:36:16;;;;;;;0.90;0.90;;;15.90;99.90;;;;;;5008475;28;20190;-81
2022/05/11 01:38:54;;;;;;;0.77;0.77;;;16.00;99.90;;;;;;5017377;28;20242;-82
2022/05/11 01:41:25;;;;;;;2.43;0.40;;;16.00;99.90;;;;;;5002354;28;20193;-81
2022/05/11 01:43:51;;;;;;;1.00;0.83;;;15.90;99.90;;;;;;5016247;28;20270;-82
2022/05/11 01:46:17;;;;;;;0.63;0.63;;;15.80;99.90;;;;;;5001885;28;20628;-82
2022/05/11 01:48:43;;;;;;;4.60;1.20;;;15.70;99.90;;;;;;5008500;28;20194;-82
2022/05/11 01:51:11;;;;;;;3.40;0.50;;;15.70;99.90;;;;;;5008787;28;20205;-82
2022/05/11 01:53:37;;;;;;;0.67;0.60;;;15.80;99.90;;;;;;5002438;28;20238;-82
2022/05/11 01:56:03;;;;;;;0.30;0.30;;;15.70;99.90;;;;;;5003095;28;20191;-82
2022/05/11 01:58:29;;;;;;;0.63;0.63;;;15.80;99.90;;;;;;5010032;28;20191;-82
2022/05/11 02:00:54;;;;;;;0.70;0.70;;;15.70;99.90;;;;;;5003809;28;20187;-82
2022/05/11 02:03:20;;;;;;;0.30;0.30;;;15.60;99.90;;;;;;5001847;28;20203;-82
2022/05/11 02:08:33;;;;;;;1.30;0.73;;;15.40;99.90;;;;;;5004921;28;20256;-82
2022/05/11 02:10:58;;;;;;;2.57;0.57;;;15.40;99.90;;;;;;5013247;28;20206;-82
2022/05/11 02:13:24;;;;;;;0.40;0.40;;;15.30;99.90;;;;;;5006976;28;20209;-82
2022/05/11 02:15:50;;;;;;;0.70;0.70;;;15.30;99.90;;;;;;5011740;28;20176;-82
2022/05/11 02:18:16;;;;;;;0.60;0.60;;;15.30;99.90;;;;;;5007714;28;20201;-81
2022/05/11 02:20:42;;;;;;;0.53;0.53;;;15.30;99.90;;;;;;5006164;28;20206;-82
2022/05/11 02:23:08;;;;;;;0.57;0.57;;;15.20;99.90;;;;;;5004474;28;20239;-82
2022/05/11 02:25:34;;;;;;;0.60;0.60;;;15.20;99.90;;;;;;5019558;28;20194;-82
2022/05/11 02:27:59;;;;;;;0.47;0.47;;;15.20;99.90;;;;;;5004841;28;20191;-82
2022/05/11 02:30:28;;;;;;;0.70;0.70;;;15.20;99.90;;;;;;5007035;28;20189;-82
2022/05/11 02:32:54;;;;;;;1.80;0.70;;;15.20;99.90;;;;;;5006372;28;20245;-82
2022/05/11 02:35:21;;;;;;;0.70;0.70;;;15.20;99.90;;;;;;5011904;28;20270;-82
2022/05/11 02:37:56;;;;;;;1.23;0.60;;;15.20;99.90;;;;;;5012383;28;20183;-82
2022/05/11 02:40:25;;;;;;;0.90;0.57;;;15.20;99.90;;;;;;5011793;28;20189;-82
2022/05/11 02:42:52;;;;;;;0.70;0.30;;;15.30;99.90;;;;;;5021282;28;20187;-82
2022/05/11 02:45:18;;;;;;;0.60;0.60;;;15.30;99.90;;;;;;5005537;28;20221;-82
2022/05/11 02:47:45;;;;;;;0.50;0.50;;;15.30;99.90;;;;;;5004439;28;20219;-81
2022/05/11 02:50:13;;;;;;;0.80;0.60;;;15.30;99.90;;;;;;5021739;28;20564;-82
2022/05/11 02:52:39;;;;;;;0.23;0.23;;;15.20;99.90;;;;;;5004358;28;20596;-83
2022/05/11 02:55:05;;;;;;;1.17;0.97;;;15.10;99.90;;;;;;5003800;28;20205;-81
2022/05/11 02:57:31;;;;;;;1.43;1.33;;;15.00;99.90;;;;;;5021860;28;20229;-81
2022/05/11 02:59:58;;;;;;;0.43;0.43;;;14.80;99.90;;;;;;5011476;28;20183;-82
2022/05/11 03:02:24;;;;;;;0.80;0.80;;;14.70;99.90;;;;;;5004866;28;20245;-82
2022/05/11 03:04:50;;;;;;;0.40;0.40;;;14.80;99.90;;;;;;5011644;28;20297;-82
2022/05/11 03:07:17;;;;;;;0.57;0.57;;;14.70;99.90;;;;;;5004865;28;20196;-82
2022/05/11 03:09:42;;;;;;;0.50;0.50;;;14.60;99.90;;;;;;5011186;28;20186;-82
2022/05/11 03:12:08;;;;;;;0.50;0.40;;;14.60;99.90;;;;;;5011897;28;20529;-81
2022/05/11 03:14:34;;;;;;;0.60;0.60;;;14.60;99.90;;;;;;5005692;28;20233;-82
2022/05/11 03:17:02;;;;;;;0.83;0.70;;;14.60;99.90;;;;;;5002391;28;20187;-81
2022/05/11 03:19:28;;;;;;;0.70;0.70;;;14.70;99.90;;;;;;5004023;28;20180;-83
2022/05/11 03:21:53;;;;;;;0.37;0.37;;;14.80;99.90;;;;;;5004527;28;20225;-82
2022/05/11 03:24:19;;;;;;;0.27;0.27;;;14.70;99.90;;;;;;5006500;28;20206;-82
2022/05/11 03:26:44;;;;;;;0.67;0.67;;;14.90;99.90;;;;;;5011453;28;20183;-81
2022/05/11 03:29:11;;;;;;;0.40;0.40;;;15.00;99.90;;;;;;5012896;28;20250;-82
2022/05/11 03:31:37;;;;;;;0.60;0.60;;;15.10;99.90;;;;;;5005042;28;20197;-82
2022/05/11 03:36:47;;;;;;;1.43;0.73;;;15.10;99.90;;;;;;5005496;28;21043;-81
2022/05/11 03:39:15;;;;;;;0.63;0.63;;;15.20;99.90;;;;;;5006215;28;20187;-82
2022/05/11 03:41:41;;;;;;;1.10;1.00;;;15.10;99.90;;;;;;5003321;28;20221;-82
2022/05/11 03:44:07;;;;;;;0.77;0.77;;;14.90;99.90;;;;;;5006130;28;20700;-82
2022/05/11 03:46:32;;;;;;;0.90;0.77;;;14.80;99.90;;;;;;5021288;28;20282;-82
2022/05/11 03:48:58;;;;;;;0.77;0.73;;;14.80;99.90;;;;;;5005564;28;20274;-82
2022/05/11 03:51:24;;;;;;;1.50;0.43;;;14.70;99.90;;;;;;5002523;28;20221;-82
2022/05/11 03:53:50;;;;;;;2.63;0.40;;;14.70;99.90;;;;;;5003019;28;20242;-82
2022/05/11 03:56:18;;;;;;;0.77;0.67;;;14.60;99.90;;;;;;5007240;28;20187;-82
2022/05/11 03:58:44;;;;;;;1.37;1.03;;;14.60;99.90;;;;;;5004406;28;20200;-82
2022/05/11 04:01:11;;;;;;;0.57;0.57;;;14.60;99.90;;;;;;5006140;28;20920;-82
2022/05/11 04:03:36;;;;;;;0.93;0.67;;;14.60;99.90;;;;;;5002587;28;20210;-82
2022/05/11 04:06:02;;;;;;;0.70;0.70;;;14.50;99.90;;;;;;5011940;28;20753;-82
2022/05/11 04:08:27;;;;;;;1.20;0.73;;;14.50;99.90;;;;;;5004591;28;20199;-83
2022/05/11 04:10:53;;;;;;;0.50;0.50;;;14.50;99.90;;;;;;5004561;28;20206;-82
2022/05/11 04:13:19;;;;;;;2.53;1.17;;;14.50;99.90;;;;;;5004241;28;20235;-82
2022/05/11 04:15:48;;;;;;;0.50;0.43;;;14.40;99.90;;;;;;5010429;28;20278;-83
2022/05/11 04:18:14;;;;;;;0.60;0.60;;;14.50;99.90;;;;;;5005027;28;20570;-82
2022/05/11 04:20:40;;;;;;;0.73;0.73;;;14.50;99.90;;;;;;5021128;28;20179;-82
2022/05/11 04:23:05;;;;;;;2.27;0.87;;;14.50;99.90;;;;;;5010177;28;20193;-81
2022/05/11 04:25:32;;;;;;;1.23;0.80;;;14.50;99.90;;;;;;5005673;28;20221;-82
2022/05/11 04:27:57;;;;;;;0.30;0.30;;;14.50;99.90;;;;;;5018396;28;20183;-82
2022/05/11 04:30:26;;;;;;;0.50;0.50;;;14.50;99.90;;;;;;5003684;28;20919;-82
2022/05/11 04:32:53;;;;;;;0.50;0.50;;;14.70;99.90;;;;;;5003612;28;20283;-82
2022/05/11 04:35:19;;;;;;;0.73;0.73;;;14.70;99.90;;;;;;5010327;28;20276;-82
2022/05/11 04:37:44;;;;;;;1.07;0.63;;;14.80;99.90;;;;;;5002947;28;20269;-82
2022/05/11 04:40:11;;;;;;;0.67;0.67;;;15.00;99.90;;;;;;5004367;28;20194;-82
2022/05/11 04:42:38;;;;;;;0.40;0.40;;;15.20;99.90;;;;;;5003190;28;20618;-82
2022/05/11 04:45:04;;;;;;;0.33;0.30;;;15.40;99.90;;;;;;5009355;28;20272;-83
2022/05/11 04:47:30;;;;;;;0.40;0.40;;;15.50;99.90;;;;;;5009768;28;20179;-82
2022/05/11 04:49:57;;;;;;;0.67;0.67;;;15.50;99.90;;;;;;5003726;28;20195;-82
2022/05/11 04:52:22;;;;;;;0.70;0.70;;;15.50;99.90;;;;;;5002489;28;20298;-83
2022/05/11 04:54:49;;;;;;;0.50;0.50;;;15.40;99.90;;;;;;5007122;28;20696;-82
2022/05/11 04:57:17;;;;;;;0.80;0.70;;;15.30;99.90;;;;;;5002184;28;20186;-82
2022/05/11 04:59:42;;;;;;;0.60;0.60;;;15.30;99.90;;;;;;5007778;28;20194;-83
2022/05/11 05:02:15;;;;;;;1.33;0.80;;;15.40;99.90;;;;;;5017550;28;20191;-81
2022/05/11 05:04:40;;;;;;;0.60;0.60;;;15.30;99.90;;;;;;5002286;28;20314;-83
2022/05/11 05:07:06;;;;;;;0.70;0.70;;;15.30;99.90;;;;;;5001188;28;20195;-82
2022/05/11 05:09:32;;;;;;;1.00;0.57;;;15.50;99.90;;;;;;5007785;28;20187;-81
2022/05/11 05:11:57;;;;;;;0.70;0.70;;;15.60;99.90;;;;;;5017040;28;20667;-80
2022/05/11 05:14:23;;;;;;;0.83;0.83;;;16.00;99.90;;;;;;5005976;28;20219;-80
2022/05/11 05:16:48;;;;;;;0.80;0.70;;;16.30;99.90;;;;;;5000139;28;20211;-80
2022/05/11 05:19:15;;;;;;;1.60;1.07;;;16.60;99.90;;;;;;4998641;28;20231;-80
2022/05/11 05:21:40;;;;;;;0.90;0.90;;;16.80;99.90;;;;;;5006140;28;20197;-81
2022/05/11 05:24:07;;;;;;;1.40;1.30;;;16.70;99.90;;;;;;5007640;28;20271;-81
2022/05/11 05:26:33;;;;;;;1.13;0.80;;;16.60;99.90;;;;;;5007917;28;20187;-81
2022/05/11 05:31:43;;;;;;;1.90;1.20;;;16.40;99.90;;;;;;5001509;28;20271;-82
2022/05/11 05:34:08;;;;;;;0.37;0.37;;;16.30;99.90;;;;;;5017232;28;20305;-81
2022/05/11 05:36:39;;;;;;;0.77;0.77;;;16.40;99.90;;;;;;5000773;28;20205;-80
2022/05/11 05:39:05;;;;;;;0.47;0.40;;;16.60;99.90;;;;;;5006575;28;20187;-81
2022/05/11 05:41:31;;;;;;;0.97;0.80;;;16.80;99.90;;;;;;5000888;28;20652;-80
2022/05/11 05:43:57;;;;;;;1.33;0.90;;;16.80;99.90;;;;;;4998277;28;20207;-80
2022/05/11 05:46:24;;;;;;;0.77;0.77;;;17.00;99.90;;;;;;5005326;28;20192;-81
2022/05/11 05:48:50;;;;;;;0.60;0.60;;;17.10;99.90;;;;;;4999871;28;20699;-80
2022/05/11 05:51:18;;;;;;;0.50;0.50;;;17.20;99.90;;;;;;4999981;28;20215;-80
2022/05/11 05:53:45;;;;;;;0.77;0.77;;;17.30;99.90;;;;;;4999580;28;20236;-80
2022/05/11 05:56:12;;;;;;;0.63;0.63;;;17.30;99.90;;;;;;5004566;28;20184;-81
2022/05/11 05:58:38;;;;;;;0.73;0.60;;;17.40;99.90;;;;;;4999652;28;20191;-80
2022/05/11 06:01:05;;;;;;;1.40;1.10;;;17.60;99.90;;;;;;4997508;28;20193;-80
2022/05/11 06:03:33;;;;;;;3.40;1.73;;;17.70;99.90;;;;;;4997151;28;20214;-80
2022/05/11 06:05:59;;;;;;;0.67;0.53;;;17.80;99.90;;;;;;5004254;28;20282;-80
2022/05/11 06:08:25;;;;;;;1.10;1.03;;;17.70;99.90;;;;;;5004492;28;20285;-80
2022/05/11 06:10:53;;;;;;;1.73;1.63;;;18.00;99.90;;;;;;4998540;28;20203;-80
2022/05/11 06:13:23;;;;;;;1.17;1.00;;;18.40;99.90;;;;;;4997404;28;20213;-80
2022/05/11 06:15:50;;;;;;;1.87;1.07;;;18.50;99.90;;;;;;4998966;28;20198;-80
2022/05/11 06:18:16;;;;;;;0.77;0.77;;;18.30;99.90;;;;;;4998141;28;21380;-80
2022/05/11 06:20:42;;;;;;;0.73;0.73;;;18.60;99.90;;;;;;5005121;28;20306;-80
2022/05/11 06:23:08;;;;;;;1.10;0.57;;;18.80;99.90;;;;;;4996646;28;20221;-80
2022/05/11 06:25:35;;;;;;;0.60;0.60;;;19.00;99.90;;;;;;4995877;28;20690;-80
2022/05/11 06:28:01;;;;;;;1.17;1.10;;;19.30;99.90;;;;;;4996714;28;20607;-82
2022/05/11 06:30:28;;;;;;;0.60;0.53;;;19.40;99.90;;;;;;5008841;28;20215;-81
2022/05/11 06:32:55;;;;;;;1.03;1.00;;;19.40;99.90;;;;;;5008592;28;20336;-81
2022/05/11 06:35:21;;;;;;;1.10;0.90;;;19.20;99.90;;;;;;5004673;28;20213;-82
2022/05/11 06:37:50;;;;;;;1.17;1.17;;;19.60;99.90;;;;;;5016234;28;20209;-81
2022/05/11 06:40:16;;;;;;;1.20;0.90;;;19.90;99.90;;;;;;5011693;28;20303;-81
2022/05/11 06:42:42;;;;;;;1.80;1.23;;;20.00;99.90;;;;;;5013958;28;20559;-81
2022/05/11 06:45:09;;;;;;;1.27;1.03;;;20.00;99.90;;;;;;5001983;28;20684;-81
2022/05/11 06:47:34;;;;;;;1.10;1.10;;;20.20;99.90;;;;;;5018435;28;20176;-81
2022/05/11 06:50:00;;;;;;;1.83;0.80;;;20.40;99.90;;;;;;5000384;28;20270;-81
2022/05/11 06:52:26;;;;;;;0.53;0.50;;;20.40;99.90;;;;;;5001654;28;20234;-81
2022/05/11 07:00:23;;;;;;;1.37;1.10;;;20.90;99.90;;;;;;5006654;28;20269;-81
2022/05/11 07:02:48;;;;;;;1.77;0.83;;;20.80;99.90;;;;;;5019122;28;20234;-81
2022/05/11 07:05:14;;;;;;;0.80;0.80;;;20.80;99.90;;;;;;5005638;28;20199;-81
2022/05/11 07:07:40;;;;;;;0.87;0.80;;;20.80;99.90;;;;;;5010008;28;20217;-81
2022/05/11 07:10:06;;;;;;;0.83;0.70;;;21.00;99.90;;;;;;5004921;28;20282;-81
2022/05/11 07:12:38;;;;;;;1.50;1.03;;;21.20;99.90;;;;;;5010058;28;20254;-81
2022/05/11 07:15:08;;;;;;;0.57;0.50;;;21.20;99.90;;;;;;5010328;28;20213;-81
2022/05/11 07:17:45;;;;;;;0.60;0.60;;;21.40;99.90;;;;;;5006751;28;20241;-81
2022/05/11 07:20:16;;;;;;;1.20;0.80;;;21.60;99.90;;;;;;5011025;28;20521;-81
2022/05/11 07:22:42;;;;;;;0.90;0.90;;;21.70;99.90;;;;;;5019982;28;20179;-81
2022/05/11 07:25:10;;;;;;;1.50;1.27;;;21.80;99.90;;;;;;5003292;28;20204;-81
2022/05/11 07:27:36;;;;;;;0.90;0.90;;;21.80;99.90;;;;;;5006456;28;20188;-81
2022/05/11 07:30:05;;;;;;;0.80;0.80;;;21.90;99.90;;;;;;5010392;28;20247;-81
2022/05/11 07:32:30;;;;;;;1.70;1.07;;;22.00;99.90;;;;;;5009547;28;20183;-81
2022/05/11 07:34:56;;;;;;;1.00;1.00;;;22.10;99.90;;;;;;5006016;28;20224;-81
2022/05/11 07:37:21;;;;;;;0.80;0.80;;;22.20;99.90;;;;;;5005502;28;20207;-81
2022/05/11 07:39:47;;;;;;;0.93;0.93;;;22.40;99.90;;;;;;5003632;28;20187;-81
2022/05/11 07:42:13;;;;;;;1.17;1.03;;;22.50;99.90;;;;;;5011238;28;20179;-81
2022/05/11 07:44:39;;;;;;;0.93;0.90;;;22.70;99.90;;;;;;5002503;28;20710;-81
2022/05/11 07:47:05;;;;;;;1.03;0.73;;;22.80;99.90;;;;;;5010782;28;20184;-81
2022/05/11 07:49:31;;;;;;;2.43;0.90;;;22.90;99.90;;;;;;5009787;28;20183;-81
2022/05/11 07:51:57;;;;;;;2.13;1.37;;;23.10;99.90;;;;;;5009498;28;20179;-81
2022/05/11 07:54:22;;;;;;;1.27;1.00;;;22.90;99.90;;;;;;5002213;28;20878;-81
2022/05/11 08:02:17;;;;;;;1.20;1.07;;;23.10;99.90;;;;;;5005578;28;20236;-81
2022/05/11 08:04:43;;;;;;;3.40;2.07;;;23.20;99.90;;;;;;5001531;28;20298;-81
2022/05/11 08:07:10;;;;;;;1.37;0.83;;;23.40;99.90;;;;;;5007929;28;20191;-81
2022/05/11 08:09:36;;;;;;;1.70;1.40;;;23.50;99.90;;;;;;5009215;28;20176;-81
2022/05/11 08:12:02;;;;;;;1.07;0.90;;;23.00;99.90;;;;;;5003216;28;20320;-81
2022/05/11 08:14:27;;;;;;;1.00;1.00;;;23.30;99.90;;;;;;5008979;28;20210;-82
2022/05/11 08:16:53;;;;;;;1.03;1.03;;;23.60;99.90;;;;;;5019153;28;20184;-81
2022/05/11 08:19:24;;;;;;;1.37;1.27;;;23.50;99.90;;;;;;5008974;28;20190;-82
2022/05/11 08:21:51;;;;;;;0.80;0.77;;;23.50;99.90;;;;;;5017870;28;20264;-81
2022/05/11 08:24:17;;;;;;;1.30;1.20;;;23.50;99.90;;;;;;5003000;28;20203;-82
2022/05/11 08:26:46;;;;;;;0.57;0.57;;;23.70;99.90;;;;;;5008900;28;20188;-81
2022/05/11 08:33:18;;;;;;;2.80;1.20;;;24.00;99.90;;;;;;5008987;28;20278;-81
2022/05/11 08:34:41;;;;;;;1.47;1.00;;;24.30;99.90;;;;;;5002698;28;20723;-81
2022/05/11 08:37:07;;;;;;;0.67;0.67;;;24.40;99.90;;;;;;5010992;28;20180;-82
2022/05/11 08:39:32;;;;;;;2.67;1.57;;;24.50;99.90;;;;;;5001624;28;20198;-82
2022/05/11 08:42:00;;;;;;;2.47;1.10;;;24.60;99.90;;;;;;5016734;28;20187;-81
2022/05/11 08:44:32;;;;;;;0.90;0.90;;;24.40;99.90;;;;;;5004273;28;20489;-81
2022/05/11 08:47:10;;;;;;;0.83;0.83;;;24.50;99.90;;;;;;5002608;28;20199;-82
2022/05/11 08:49:52;;;;;;;1.07;0.87;;;24.60;99.90;;;;;;5016513;28;20196;-81
2022/05/11 08:52:31;;;;;;;1.60;0.60;;;24.80;99.90;;;;;;5002209;28;20273;-82
2022/05/11 08:55:07;;;;;;;1.70;1.60;;;24.80;99.90;;;;;;5007749;28;20684;-82
2022/05/11 08:57:33;;;;;;;0.87;0.73;;;24.80;99.90;;;;;;5001907;28;20783;-82
2022/05/11 09:00:07;;;;;;;0.70;0.70;;;25.10;99.90;;;;;;5002666;28;20301;-82
2022/05/11 09:02:47;;;;;;;0.57;0.57;;;25.20;99.90;;;;;;5008060;28;20263;-81
2022/05/11 09:05:16;;;;;;;1.13;1.03;;;25.30;99.90;;;;;;4999311;28;20214;-81
2022/05/11 09:07:45;;;;;;;0.90;0.90;;;25.40;99.90;;;;;;5000993;28;20661;-81
2022/05/11 09:10:14;;;;;;;0.70;0.70;;;25.70;99.90;;;;;;5002338;28;20179;-81
2022/05/11 09:12:40;;;;;;;1.43;1.33;;;25.70;99.90;;;;;;5000232;28;20186;-82
2022/05/11 09:15:07;;;;;;;0.80;0.80;;;25.80;99.90;;;;;;5017528;28;20234;-82
2022/05/11 09:17:37;;;;;;;0.90;0.80;;;25.80;99.90;;;;;;5001801;28;20194;-81
2022/05/11 09:20:13;;;;;;;2.20;1.07;;;26.10;99.90;;;;;;5007781;28;20191;-81
2022/05/11 09:23:01;;;;;;;0.87;0.87;;;26.20;99.90;;;;;;5001035;28;20182;-82
2022/05/11 09:25:35;;;;;;;0.63;0.63;;;26.20;99.90;;;;;;4997913;28;20215;-82
2022/05/11 09:28:19;;;;;;;0.73;0.73;;;26.30;99.90;;;;;;5000301;28;20535;-82
2022/05/11 09:31:03;;;;;;;0.93;0.80;;;26.30;99.90;;;;;;5000340;28;20671;-82
2022/05/11 09:33:32;;;;;;;3.37;0.90;;;26.50;99.90;;;;;;4997804;28;20306;-82
2022/05/11 09:36:02;;;;;;;2.37;2.00;;;26.70;99.90;;;;;;5007253;28;20178;-82
2022/05/11 09:38:46;;;;;;;0.93;0.93;;;26.60;99.90;;;;;;4999049;28;20194;-82
2022/05/11 09:41:28;;;;;;;1.70;1.07;;;26.60;99.90;;;;;;5016608;28;20191;-82
2022/05/11 09:43:58;;;;;;;1.13;1.00;;;26.60;99.90;;;;;;5008168;28;20210;-82
2022/05/11 09:46:26;;;;;;;0.80;0.80;;;26.70;99.90;;;;;;5008128;28;20242;-82
2022/05/11 09:49:13;;;;;;;1.10;1.00;;;26.80;99.90;;;;;;5013527;28;20285;-82
2022/05/11 09:51:38;;;;;;;0.60;0.60;;;26.90;99.90;;;;;;5002015;28;20201;-82
2022/05/11 09:54:48;;;;;;;2.60;1.10;;;26.90;99.90;;;;;;5000275;28;20860;-82
2022/05/11 09:57:23;;;;;;;2.23;1.17;;;26.90;99.90;;;;;;5000505;28;20269;-82
2022/05/11 09:59:51;;;;;;;0.93;0.93;;;26.90;99.90;;;;;;5001267;28;20171;-82
2022/05/11 10:02:32;;;;;;;0.70;0.70;;;27.10;99.90;;;;;;5016608;28;20187;-82
2022/05/11 10:05:12;;;;;;;1.92;1.42;;;27.10;99.90;;;;;;4999192;28;20294;-81
2022/05/11 10:07:59;;;;;;;1.30;0.70;;;27.10;99.90;;;;;;4999484;28;20214;-82
2022/05/11 10:10:28;;;;;;;3.45;0.80;;;27.20;99.90;;;;;;5000604;28;20179;-82
2022/05/11 10:13:01;;;;;;;0.80;0.80;;;27.30;99.90;;;;;;4997397;28;20218;-82
2022/05/11 10:24:31;;;;;;;1.63;1.55;;;27.80;99.90;;;;;;4999944;28;20206;-81
2022/05/11 10:27:04;;;;;;;0.75;0.65;;;28.00;99.90;;;;;;5015363;28;20179;-82
2022/05/11 10:29:51;;;;;;;0.85;0.85;;;28.20;99.90;;;;;;5007057;28;20183;-82
2022/05/11 10:32:20;;;;;;;1.55;1.27;;;27.80;99.90;;;;;;5003582;28;20204;-82
2022/05/11 10:35:06;;;;;;;0.70;0.70;;;27.70;99.90;;;;;;5003864;28;20210;-82
2022/05/11 10:38:01;;;;;;;1.65;0.90;;;27.90;99.90;;;;;;5017911;28;20806;-82
2022/05/11 10:40:57;;;;;;;0.85;0.70;;;27.90;99.90;;;;;;5003296;28;20187;-82
2022/05/11 10:43:37;;;;;;;1.08;0.98;;;28.20;99.90;;;;;;5004448;28;20194;-82
2022/05/11 10:46:12;;;;;;;1.02;1.00;;;28.40;99.90;;;;;;5019404;28;20176;-82
2022/05/11 10:48:56;;;;;;;7.78;1.65;;;28.50;99.90;;;;;;5009543;28;20203;-82
2022/05/11 10:51:54;;;;;;;0.80;0.80;;;28.60;99.90;;;;;;5003377;28;20187;-82
2022/05/11 10:54:24;;;;;;;1.08;1.00;;;28.40;99.90;;;;;;4999942;28;20281;-81
2022/05/11 10:57:02;;;;;;;1.17;0.80;;;28.60;99.90;;;;;;5017927;28;20278;-82
2022/05/11 10:59:43;;;;;;;1.02;0.98;;;28.90;99.90;;;;;;5017613;28;20203;-82
2022/05/11 11:02:30;;;;;;;0.57;0.57;;;29.10;99.90;;;;;;5018230;28;20172;-82
2022/05/11 11:05:09;;;;;;;1.02;1.00;;;29.30;99.90;;;;;;5016196;28;20217;-82
2022/05/11 11:08:08;;;;;;;1.05;1.05;;;29.20;99.90;;;;;;5001696;28;20217;-82
2022/05/11 11:10:58;;;;;;;0.73;0.73;;;29.30;99.90;;;;;;5017886;28;20214;-82
2022/05/11 11:13:32;;;;;;;1.80;1.13;;;29.40;99.90;;;;;;5017712;28;20218;-81
2022/05/11 11:15:58;;;;;;;0.50;0.50;;;29.60;99.90;;;;;;5001939;28;20188;-82
2022/05/11 11:18:37;;;;;;;0.75;0.50;;;29.80;99.90;;;;;;5012650;28;20194;-82
2022/05/11 11:21:05;;;;;;;0.73;0.73;;;30.20;99.90;;;;;;5003085;28;20187;-82
2022/05/11 11:23:34;;;;;;;1.85;1.10;;;29.70;99.90;;;;;;5002110;28;20646;-82
2022/05/11 11:26:12;;;;;;;0.93;0.82;;;29.70;99.90;;;;;;5017407;28;20179;-82
2022/05/11 11:28:40;;;;;;;1.20;1.17;;;29.70;99.90;;;;;;5002531;28;20200;-82
2022/05/11 11:31:15;;;;;;;1.05;0.75;;;29.90;99.90;;;;;;5002553;28;20180;-82
2022/05/11 11:34:03;;;;;;;2.83;0.88;;;29.90;99.90;;;;;;5016509;28;20214;-82
2022/05/11 11:36:38;;;;;;;1.25;1.15;;;29.90;99.90;;;;;;4996024;28;20564;-82
2022/05/11 11:39:06;;;;;;;0.77;0.77;;;29.70;99.90;;;;;;5000856;28;20175;-82
2022/05/11 11:41:36;;;;;;;0.75;0.75;;;29.70;99.90;;;;;;5002168;28;20186;-82
2022/05/11 11:44:35;;;;;;;1.02;0.93;;;29.70;99.90;;;;;;5015134;28;20633;-82
2022/05/11 11:47:00;;;;;;;1.33;1.23;;;29.80;99.90;;;;;;4999603;28;20191;-82
2022/05/11 11:49:27;;;;;;;1.02;1.02;;;29.80;99.90;;;;;;5001156;28;20183;-82
2022/05/11 11:52:01;;;;;;;1.45;1.35;;;29.70;99.90;;;;;;5018142;28;20183;-82
2022/05/11 11:54:28;;;;;;;0.70;0.60;;;29.80;99.90;;;;;;5000243;28;20240;-82
2022/05/11 11:56:55;;;;;;;0.85;0.85;;;29.70;99.90;;;;;;5009449;28;20190;-82
2022/05/11 11:59:24;;;;;;;1.20;1.10;;;29.40;99.90;;;;;;5001735;28;20636;-82
2022/05/11 12:01:55;;;;;;;1.40;1.05;;;29.40;99.90;;;;;;5002318;28;20586;-82
2022/05/11 12:04:30;;;;;;;3.63;2.25;;;29.50;99.90;;;;;;5008462;28;20753;-82
2022/05/11 12:15:32;;;;;;;1.63;1.10;;;29.60;99.90;;;;;;5001584;28;20249;-82
2022/05/11 12:17:58;;;;;;;1.83;0.93;;;29.60;99.90;;;;;;5001574;28;20180;-82
2022/05/11 12:20:24;;;;;;;3.10;1.17;;;29.60;99.90;;;;;;5002357;28;20190;-82
2022/05/11 12:22:57;;;;;;;1.60;0.75;;;29.70;99.90;;;;;;5000994;28;20257;-82
2022/05/11 12:25:28;;;;;;;0.70;0.70;;;29.50;99.90;;;;;;5002706;28;20199;-82
2022/05/11 12:27:55;;;;;;;2.40;2.20;;;29.40;99.90;;;;;;5000523;28;20178;-82
2022/05/11 12:30:32;;;;;;;1.42;1.17;;;29.50;99.90;;;;;;5002364;28;20276;-82
2022/05/11 12:33:05;;;;;;;2.40;0.95;;;29.60;99.90;;;;;;5001240;28;20518;-82
2022/05/11 12:35:35;;;;;;;1.42;0.93;;;29.70;99.90;;;;;;4999324;28;21020;-82
2022/05/11 12:38:04;;;;;;;1.00;1.00;;;29.60;99.90;;;;;;5000931;28;20171;-82
2022/05/11 12:40:33;;;;;;;1.02;0.77;;;29.50;99.90;;;;;;5001215;28;20633;-82
2022/05/11 12:43:08;;;;;;;0.40;0.40;;;29.50;99.90;;;;;;5001600;28;20186;-82
2022/05/11 12:45:41;;;;;;;0.65;0.65;;;29.60;99.90;;;;;;5001595;28;20187;-82
2022/05/11 12:48:08;;;;;;;1.08;0.70;;;29.90;99.90;;;;;;4999773;28;20180;-83
2022/05/11 12:50:47;;;;;;;1.65;1.15;;;29.90;99.90;;;;;;5009007;28;20183;-82
2022/05/11 12:53:15;;;;;;;0.90;0.90;;;29.90;99.90;;;;;;4999889;28;20214;-82
2022/05/11 12:55:42;;;;;;;1.67;1.23;;;29.60;99.90;;;;;;5013783;28;20620;-82
2022/05/11 12:58:07;;;;;;;0.80;0.80;;;29.30;99.90;;;;;;5006961;28;20278;-82
2022/05/11 13:00:35;;;;;;;0.88;0.82;;;29.40;99.90;;;;;;5001068;28;20290;-82
2022/05/11 13:03:29;;;;;;;2.28;1.63;;;29.60;99.90;;;;;;4999480;28;20247;-82
2022/05/11 13:05:59;;;;;;;0.70;0.70;;;29.60;99.90;;;;;;4999770;28;20176;-82
2022/05/11 13:08:28;;;;;;;1.30;0.90;;;29.80;99.90;;;;;;5007861;28;20191;-82
2022/05/11 13:10:56;;;;;;;1.20;0.90;;;29.90;99.90;;;;;;5006139;28;20215;-82
2022/05/11 13:13:28;;;;;;;0.70;0.70;;;29.70;99.90;;;;;;5006813;28;20203;-82
2022/05/11 13:16:06;;;;;;;0.70;0.63;;;29.70;99.90;;;;;;5017476;28;20183;-82
2022/05/11 13:18:33;;;;;;;1.38;1.27;;;29.90;99.90;;;;;;5000678;28;20650;-82
2022/05/11 13:21:00;;;;;;;0.70;0.70;;;29.80;99.90;;;;;;5006897;28;20322;-82
2022/05/11 13:23:40;;;;;;;1.05;0.90;;;29.50;99.90;;;;;;4999934;28;20221;-82
2022/05/11 13:26:29;;;;;;;0.77;0.77;;;29.50;99.90;;;;;;5006302;28;20229;-82
2022/05/11 13:29:00;;;;;;;1.20;0.70;;;29.30;99.90;;;;;;5000625;28;20179;-82
2022/05/11 13:31:30;;;;;;;0.68;0.68;;;29.40;99.90;;;;;;5000855;28;20180;-82
2022/05/11 13:33:57;;;;;;;1.98;1.10;;;29.40;99.90;;;;;;5000733;28;20218;-82
2022/05/11 13:36:26;;;;;;;0.68;0.68;;;29.60;99.90;;;;;;5000890;28;20179;-82
2022/05/11 13:38:59;;;;;;;1.17;0.90;;;29.70;99.90;;;;;;4999239;28;20179;-82
2022/05/11 13:41:33;;;;;;;1.02;0.82;;;29.90;99.90;;;;;;5014659;28;20183;-82